createdAt,value
2022-11-08T00:00:41.111Z,12.10
2022-11-08T00:03:08.081Z,12.10
2022-11-08T00:05:53.439Z,12.10
2022-11-08T00:08:39.066Z,12.30
2022-11-08T00:11:24.726Z,12.30
2022-11-08T00:13:57.457Z,12.40
2022-11-08T00:16:24.631Z,12.50
2022-11-08T00:18:51.463Z,12.50
2022-11-08T00:21:18.229Z,12.50
2022-11-08T00:23:45.066Z,12.50
2022-11-08T00:26:11.874Z,12.60
2022-11-08T00:28:38.646Z,12.50
2022-11-08T00:31:08.335Z,12.50
2022-11-08T00:33:35.249Z,12.30
2022-11-08T00:36:03.218Z,12.30
2022-11-08T00:38:32.683Z,12.30
2022-11-08T00:40:59.479Z,12.30
2022-11-08T00:43:26.281Z,12.40
2022-11-08T00:45:53.083Z,12.40
2022-11-08T00:48:20.209Z,12.50
2022-11-08T00:50:47.272Z,12.50
2022-11-08T00:53:14.069Z,12.50
2022-11-08T00:55:40.843Z,12.50
2022-11-08T00:58:07.718Z,12.50
2022-11-08T01:00:34.578Z,12.40
2022-11-08T01:03:19.617Z,12.30
2022-11-08T01:05:47.914Z,12.30
2022-11-08T01:08:16.116Z,12.20
2022-11-08T01:10:48.966Z,12.10
2022-11-08T01:13:16.515Z,12.00
2022-11-08T01:15:44.772Z,12.00
2022-11-08T01:18:13.312Z,11.90
2022-11-08T01:20:40.977Z,11.90
2022-11-08T01:23:08.188Z,11.90
2022-11-08T01:25:43.012Z,11.90
2022-11-08T01:28:10.884Z,11.80
2022-11-08T01:30:42.696Z,11.80
2022-11-08T01:33:10.163Z,11.80
2022-11-08T01:35:37.326Z,11.80
2022-11-08T01:38:05.621Z,11.70
2022-11-08T01:40:33.394Z,11.60
2022-11-08T01:43:00.198Z,11.60
2022-11-08T01:46:04.744Z,11.50
2022-11-08T01:48:31.928Z,11.60
2022-11-08T01:51:00.398Z,11.50
2022-11-08T01:53:28.909Z,11.50
2022-11-08T01:55:56.419Z,11.40
2022-11-08T01:58:27.252Z,11.30
2022-11-08T02:00:54.186Z,11.30
2022-11-08T02:03:21.687Z,11.20
2022-11-08T02:05:48.609Z,11.10
2022-11-08T02:08:31.417Z,11.10
2022-11-08T02:10:58.519Z,11.10
2022-11-08T02:13:28.176Z,11.00
2022-11-08T02:15:55.836Z,11.00
2022-11-08T02:18:26.330Z,11.00
2022-11-08T02:21:19.133Z,11.00
2022-11-08T02:23:57.696Z,10.80
2022-11-08T02:26:28.620Z,10.80
2022-11-08T02:28:55.695Z,10.80
2022-11-08T02:31:22.752Z,10.70
2022-11-08T02:33:50.185Z,10.70
2022-11-08T02:36:23.035Z,10.60
2022-11-08T02:38:55.185Z,10.70
2022-11-08T02:41:22.063Z,10.70
2022-11-08T02:43:48.914Z,10.70
2022-11-08T02:46:15.742Z,10.70
2022-11-08T02:48:42.528Z,10.60
2022-11-08T02:51:09.346Z,10.50
2022-11-08T02:53:36.207Z,10.50
2022-11-08T02:56:03.127Z,10.40
2022-11-08T02:58:29.970Z,10.40
2022-11-08T03:00:56.843Z,10.40
2022-11-08T03:03:23.632Z,10.50
2022-11-08T03:05:50.557Z,10.50
2022-11-08T03:08:17.539Z,10.60
2022-11-08T03:10:44.571Z,10.60
2022-11-08T03:13:11.512Z,10.60
2022-11-08T03:15:38.313Z,10.70
2022-11-08T03:18:05.526Z,10.60
2022-11-08T03:20:33.349Z,10.70
2022-11-08T03:23:02.218Z,10.80
2022-11-08T03:25:29.474Z,10.70
2022-11-08T03:28:00.806Z,10.80
2022-11-08T03:30:27.633Z,10.70
2022-11-08T03:32:54.369Z,10.70
2022-11-08T03:35:21.180Z,10.80
2022-11-08T03:37:52.014Z,10.80
2022-11-08T03:40:19.260Z,10.70
2022-11-08T03:42:46.704Z,10.70
2022-11-08T03:45:15.107Z,10.70
2022-11-08T03:47:46.438Z,10.80
2022-11-08T03:50:15.153Z,10.80
2022-11-08T03:52:43.927Z,10.90
2022-11-08T03:55:11.100Z,10.80
2022-11-08T03:57:39.619Z,10.80
2022-11-08T04:00:08.561Z,10.80
2022-11-08T04:02:38.694Z,10.80
2022-11-08T04:05:08.824Z,10.80
2022-11-08T04:07:36.048Z,10.80
2022-11-08T04:10:04.076Z,10.80
2022-11-08T04:12:49.316Z,10.80
2022-11-08T04:15:20.296Z,10.80
2022-11-08T04:18:12.846Z,10.80
2022-11-08T04:21:06.023Z,10.80
2022-11-08T04:23:35.581Z,10.80
2022-11-08T04:26:05.270Z,10.80
2022-11-08T04:28:36.035Z,10.80
2022-11-08T04:31:06.661Z,10.70
2022-11-08T04:33:33.884Z,10.70
2022-11-08T04:36:03.209Z,10.70
2022-11-08T04:38:31.413Z,10.70
2022-11-08T04:41:22.333Z,10.70
2022-11-08T04:43:50.386Z,10.70
2022-11-08T04:46:20.333Z,10.70
2022-11-08T04:48:49.691Z,10.70
2022-11-08T04:51:19.204Z,10.70
2022-11-08T04:53:46.299Z,10.70
2022-11-08T04:56:15.677Z,10.70
2022-11-08T04:58:44.530Z,10.80
2022-11-08T05:01:13.549Z,10.80
2022-11-08T05:03:40.447Z,10.80
2022-11-08T05:06:12.164Z,10.80
2022-11-08T05:08:39.423Z,10.70
2022-11-08T05:11:12.299Z,10.70
2022-11-08T05:13:39.585Z,10.80
2022-11-08T05:16:15.869Z,10.70
2022-11-08T05:18:42.868Z,10.80
2022-11-08T05:21:30.331Z,10.80
2022-11-08T05:23:58.519Z,10.80
2022-11-08T05:26:26.485Z,10.80
2022-11-08T05:28:53.366Z,10.80
2022-11-08T05:31:20.344Z,10.80
2022-11-08T05:33:47.549Z,10.80
2022-11-08T05:36:16.003Z,10.80
2022-11-08T05:38:43.065Z,10.80
2022-11-08T05:41:19.449Z,10.80
2022-11-08T05:43:48.806Z,10.80
2022-11-08T05:46:16.637Z,10.90
2022-11-08T05:48:44.267Z,10.90
2022-11-08T05:51:18.714Z,10.90
2022-11-08T05:53:47.161Z,10.90
2022-11-08T05:56:14.136Z,10.90
2022-11-08T05:58:40.960Z,10.90
2022-11-08T06:01:13.629Z,10.90
2022-11-08T06:03:40.697Z,10.80
2022-11-08T06:06:16.827Z,10.80
2022-11-08T06:08:47.654Z,10.80
2022-11-08T06:11:22.752Z,10.80
2022-11-08T06:13:50.442Z,10.80
2022-11-08T06:16:19.192Z,10.80
2022-11-08T06:18:47.135Z,10.80
2022-11-08T06:21:23.113Z,10.80
2022-11-08T06:23:53.574Z,10.80
2022-11-08T06:26:21.590Z,10.70
2022-11-08T06:28:48.403Z,10.80
2022-11-08T06:31:15.370Z,10.70
2022-11-08T06:33:42.586Z,10.80
2022-11-08T06:36:09.550Z,10.70
2022-11-08T06:38:36.523Z,10.80
2022-11-08T06:41:03.820Z,10.80
2022-11-08T06:43:30.860Z,10.70
2022-11-08T06:46:03.835Z,10.80
2022-11-08T06:48:35.572Z,10.80
2022-11-08T06:51:03.957Z,10.80
2022-11-08T06:53:31.124Z,10.90
2022-11-08T06:56:00.049Z,10.90
2022-11-08T06:58:26.813Z,10.90
2022-11-08T07:00:53.617Z,10.90
2022-11-08T07:03:20.803Z,11.00
2022-11-08T07:05:47.742Z,10.90
2022-11-08T07:08:15.316Z,11.00
2022-11-08T07:10:43.054Z,11.00
2022-11-08T07:13:14.116Z,11.10
2022-11-08T07:15:41.999Z,11.10
2022-11-08T07:18:11.687Z,11.10
2022-11-08T07:20:39.483Z,11.20
2022-11-08T07:23:07.134Z,11.20
2022-11-08T07:25:34.678Z,11.30
2022-11-08T07:28:04.343Z,11.40
2022-11-08T07:30:31.871Z,11.60
2022-11-08T07:32:58.966Z,11.90
2022-11-08T07:35:27.728Z,12.00
2022-11-08T07:37:55.386Z,11.80
2022-11-08T07:40:22.546Z,11.80
2022-11-08T07:43:10.512Z,11.80
2022-11-08T07:45:36.367Z,11.70
2022-11-08T07:48:10.617Z,11.60
2022-11-08T07:50:39.880Z,11.70
2022-11-08T07:53:06.691Z,11.80
2022-11-08T07:55:37.257Z,11.70
2022-11-08T07:58:04.886Z,11.80
2022-11-08T08:00:34.146Z,11.80
2022-11-08T08:03:01.689Z,11.80
2022-11-08T08:05:30.452Z,11.80
2022-11-08T08:07:59.137Z,11.90
2022-11-08T08:10:28.045Z,11.90
2022-11-08T08:12:56.525Z,12.00
2022-11-08T08:15:24.124Z,12.00
2022-11-08T08:17:51.147Z,12.00
2022-11-08T08:20:18.164Z,12.10
2022-11-08T08:22:46.444Z,12.10
2022-11-08T08:25:14.290Z,12.20
2022-11-08T08:27:46.009Z,12.30
2022-11-08T08:30:12.964Z,12.30
2022-11-08T08:32:39.809Z,12.20
2022-11-08T08:35:06.836Z,12.20
2022-11-08T08:37:33.626Z,12.30
2022-11-08T08:40:00.592Z,12.30
2022-11-08T08:42:27.451Z,12.40
2022-11-08T08:44:54.490Z,12.40
2022-11-08T08:47:21.356Z,12.40
2022-11-08T08:49:48.201Z,12.40
2022-11-08T08:52:15.017Z,12.50
2022-11-08T08:54:41.824Z,12.40
2022-11-08T08:57:08.750Z,12.50
2022-11-08T09:02:22.353Z,12.50
2022-11-08T09:04:49.224Z,12.60
2022-11-08T09:07:16.060Z,12.60
2022-11-08T09:09:42.936Z,12.50
2022-11-08T09:12:11.981Z,12.60
2022-11-08T09:14:41.360Z,12.60
2022-11-08T09:17:08.192Z,12.70
2022-11-08T09:19:35.823Z,12.80
2022-11-08T09:22:02.802Z,12.80
2022-11-08T09:24:29.656Z,12.90
2022-11-08T09:26:56.495Z,13.00
2022-11-08T09:29:23.324Z,13.10
2022-11-08T09:31:50.104Z,13.20
2022-11-08T09:34:20.513Z,13.10
2022-11-08T09:36:48.937Z,13.20
2022-11-08T09:39:23.038Z,13.20
2022-11-08T09:42:33.942Z,13.30
2022-11-08T09:45:24.230Z,13.20
2022-11-08T09:47:56.879Z,13.30
2022-11-08T09:50:43.540Z,13.50
2022-11-08T09:53:22.677Z,13.60
2022-11-08T09:56:17.143Z,13.70
2022-11-08T09:59:02.136Z,13.90
2022-11-08T10:01:36.533Z,14.00
2022-11-08T10:04:12.764Z,14.20
2022-11-08T10:07:15.316Z,14.30
2022-11-08T10:10:09.124Z,14.40
2022-11-08T10:12:46.310Z,14.50
2022-11-08T10:15:27.376Z,14.50
2022-11-08T10:18:23.106Z,14.50
2022-11-08T10:21:13.271Z,14.70
2022-11-08T10:23:50.585Z,14.90
2022-11-08T10:26:24.310Z,14.90
2022-11-08T10:29:01.157Z,14.90
2022-11-08T10:31:33.676Z,15.00
2022-11-08T10:34:02.070Z,15.00
2022-11-08T10:36:38.240Z,15.00
2022-11-08T10:42:05.307Z,15.00
2022-11-08T10:44:33.733Z,15.00
2022-11-08T10:47:03.892Z,15.10
2022-11-08T10:49:32.059Z,15.20
2022-11-08T10:52:01.259Z,15.40
2022-11-08T10:54:44.770Z,15.40
2022-11-08T10:57:43.595Z,15.50
2022-11-08T11:00:22.280Z,15.60
2022-11-08T11:03:01.539Z,15.60
2022-11-08T11:05:31.401Z,15.70
2022-11-08T11:08:10.464Z,15.70
2022-11-08T11:10:41.384Z,15.80
2022-11-08T11:13:20.640Z,15.80
2022-11-08T11:15:51.191Z,15.80
2022-11-08T11:18:25.584Z,15.80
2022-11-08T11:21:12.242Z,15.80
2022-11-08T11:23:55.096Z,15.70
2022-11-08T11:26:32.134Z,15.80
2022-11-08T11:29:04.941Z,15.90
2022-11-08T11:31:43.467Z,15.90
2022-11-08T11:34:35.458Z,15.90
2022-11-08T11:37:09.595Z,16.00
2022-11-08T11:39:52.630Z,16.10
2022-11-08T11:42:45.747Z,16.10
2022-11-08T11:45:41.663Z,16.10
2022-11-08T11:48:24.409Z,16.20
2022-11-08T11:50:51.509Z,16.30
2022-11-08T11:53:32.734Z,16.30
2022-11-08T11:56:18.044Z,16.30
2022-11-08T11:58:56.726Z,16.40
2022-11-08T12:01:48.139Z,16.40
2022-11-08T12:05:03.164Z,16.30
2022-11-08T12:07:32.923Z,16.30
2022-11-08T12:10:14.479Z,16.30
2022-11-08T12:12:57.663Z,16.20
2022-11-08T12:15:46.573Z,16.20
2022-11-08T12:18:53.560Z,16.20
2022-11-08T12:21:28.988Z,16.20
2022-11-08T12:24:19.827Z,16.20
2022-11-08T12:27:09.790Z,16.30
2022-11-08T12:30:13.169Z,16.40
2022-11-08T12:33:01.634Z,16.50
2022-11-08T12:35:50.595Z,16.60
2022-11-08T12:38:59.512Z,16.80
2022-11-08T12:41:42.200Z,16.90
2022-11-08T12:45:01.655Z,16.90
2022-11-08T12:47:52.983Z,17.00
2022-11-08T12:50:26.097Z,16.80
2022-11-08T12:53:20.712Z,16.80
2022-11-08T12:55:48.682Z,16.90
2022-11-08T12:58:39.153Z,16.90
2022-11-08T13:01:11.512Z,17.00
2022-11-08T13:03:45.902Z,17.00
2022-11-08T13:06:46.306Z,17.10
2022-11-08T13:09:27.837Z,17.00
2022-11-08T13:12:01.623Z,17.00
2022-11-08T13:14:29.138Z,17.00
2022-11-08T13:17:16.347Z,17.00
2022-11-08T13:19:52.031Z,17.00
2022-11-08T13:22:34.053Z,17.00
2022-11-08T13:25:22.152Z,17.00
2022-11-08T13:27:49.212Z,17.10
2022-11-08T13:30:16.571Z,17.10
2022-11-08T13:32:43.343Z,17.10
2022-11-08T13:35:24.974Z,17.00
2022-11-08T13:38:00.691Z,17.00
2022-11-08T13:40:44.601Z,17.10
2022-11-08T13:43:25.413Z,17.00
2022-11-08T13:45:53.001Z,16.90
2022-11-08T13:48:26.219Z,16.80
2022-11-08T13:50:54.685Z,16.70
2022-11-08T13:53:25.723Z,16.70
2022-11-08T13:56:06.280Z,16.70
2022-11-08T13:58:40.604Z,16.80
2022-11-08T14:01:22.904Z,16.80
2022-11-08T14:03:49.881Z,16.80
2022-11-08T14:06:52.699Z,16.80
2022-11-08T14:09:41.363Z,16.80
2022-11-08T14:12:43.862Z,16.80
2022-11-08T14:15:22.521Z,16.70
2022-11-08T14:17:55.075Z,16.70
2022-11-08T14:20:38.172Z,16.70
2022-11-08T14:23:20.911Z,16.70
2022-11-08T14:26:00.382Z,16.70
2022-11-08T14:28:31.753Z,16.70
2022-11-08T14:31:00.938Z,16.60
2022-11-08T14:33:29.957Z,16.50
2022-11-08T14:36:02.690Z,16.40
2022-11-08T14:38:33.322Z,16.40
2022-11-08T14:41:05.063Z,16.40
2022-11-08T14:43:42.509Z,16.40
2022-11-08T14:46:29.559Z,16.30
2022-11-08T14:48:57.368Z,16.30
2022-11-08T14:51:26.258Z,16.30
2022-11-08T14:53:54.881Z,16.30
2022-11-08T14:56:24.578Z,16.30
2022-11-08T14:58:53.650Z,16.30
2022-11-08T15:01:25.996Z,16.30
2022-11-08T15:04:02.314Z,16.30
2022-11-08T15:06:36.466Z,16.20
2022-11-08T15:09:04.912Z,16.30
2022-11-08T15:11:34.669Z,16.30
2022-11-08T15:14:10.986Z,16.20
2022-11-08T15:16:43.602Z,16.20
2022-11-08T15:19:32.082Z,16.10
2022-11-08T15:22:22.147Z,15.90
2022-11-08T15:24:59.250Z,16.00
2022-11-08T15:27:27.249Z,16.00
2022-11-08T15:30:08.592Z,16.00
2022-11-08T15:32:37.446Z,16.00
2022-11-08T15:35:05.525Z,15.90
2022-11-08T15:37:39.989Z,15.90
2022-11-08T15:40:20.607Z,15.90
2022-11-08T15:42:50.442Z,15.80
2022-11-08T15:45:17.210Z,15.70
2022-11-08T15:47:46.266Z,15.80
2022-11-08T15:50:19.632Z,15.90
2022-11-08T15:52:49.243Z,15.70
2022-11-08T15:55:22.881Z,15.70
2022-11-08T15:57:50.504Z,15.70
2022-11-08T16:00:24.310Z,15.60
2022-11-08T16:02:52.322Z,15.60
2022-11-08T16:05:23.746Z,15.60
2022-11-08T16:07:51.343Z,15.60
2022-11-08T16:10:24.092Z,15.70
2022-11-08T16:12:50.915Z,15.70
2022-11-08T16:15:21.579Z,15.80
2022-11-08T16:17:48.582Z,15.70
2022-11-08T16:20:27.669Z,15.80
2022-11-08T16:22:56.260Z,15.70
2022-11-08T16:25:24.278Z,15.80
2022-11-08T16:27:55.540Z,15.80
2022-11-08T16:30:22.493Z,15.80
2022-11-08T16:32:49.540Z,15.80
2022-11-08T16:35:16.848Z,15.80
2022-11-08T16:37:45.024Z,15.80
2022-11-08T16:40:23.714Z,15.80
2022-11-08T16:42:52.742Z,15.80
2022-11-08T16:45:37.323Z,15.70
2022-11-08T16:48:13.432Z,15.70
2022-11-08T16:50:40.408Z,15.70
2022-11-08T16:53:18.521Z,15.70
2022-11-08T16:55:45.594Z,15.70
2022-11-08T16:58:12.808Z,15.80
2022-11-08T17:00:41.688Z,15.80
2022-11-08T17:03:18.401Z,15.80
2022-11-08T17:05:45.298Z,15.80
2022-11-08T17:08:12.300Z,15.90
2022-11-08T17:10:39.407Z,15.90
2022-11-08T17:13:06.268Z,15.80
2022-11-08T17:15:33.105Z,15.80
2022-11-08T17:17:59.954Z,15.70
2022-11-08T17:20:27.144Z,15.80
2022-11-08T17:22:54.447Z,15.80
2022-11-08T17:25:24.018Z,15.80
2022-11-08T17:27:52.244Z,15.70
2022-11-08T17:30:25.361Z,15.60
2022-11-08T17:32:53.675Z,15.60
2022-11-08T17:35:20.930Z,15.50
2022-11-08T17:37:47.794Z,15.50
2022-11-08T17:40:15.191Z,15.50
2022-11-08T17:42:42.077Z,15.40
2022-11-08T17:45:10.486Z,15.40
2022-11-08T17:47:37.776Z,15.30
2022-11-08T17:50:06.344Z,15.40
2022-11-08T17:52:33.598Z,15.30
2022-11-08T17:55:00.355Z,15.30
2022-11-08T17:57:27.448Z,15.30
2022-11-08T17:59:54.416Z,15.20
2022-11-08T18:02:22.569Z,15.20
2022-11-08T18:04:49.451Z,15.20
2022-11-08T18:07:16.399Z,15.20
2022-11-08T18:09:43.293Z,15.20
2022-11-08T18:12:10.197Z,15.10
2022-11-08T18:14:37.002Z,15.10
2022-11-08T18:17:05.125Z,15.20
2022-11-08T18:19:32.228Z,15.10
2022-11-08T18:22:00.438Z,15.20
2022-11-08T18:24:27.320Z,15.10
2022-11-08T18:26:54.113Z,15.00
2022-11-08T18:29:21.113Z,15.10
2022-11-08T18:31:47.930Z,15.00
2022-11-08T18:34:14.891Z,15.00
2022-11-08T18:36:41.699Z,15.00
2022-11-08T18:39:19.895Z,15.00
2022-11-08T18:41:47.304Z,15.10
2022-11-08T18:44:14.428Z,15.00
2022-11-08T18:46:43.501Z,15.00
2022-11-08T18:49:11.109Z,15.00
2022-11-08T18:51:37.979Z,14.90
2022-11-08T18:54:04.837Z,15.00
2022-11-08T18:56:31.893Z,14.90
2022-11-08T18:58:58.734Z,15.00
2022-11-08T19:01:25.690Z,14.80
2022-11-08T19:03:55.752Z,14.90
2022-11-08T19:06:22.676Z,14.90
2022-11-08T19:08:49.615Z,14.80
2022-11-08T19:11:20.545Z,14.80
2022-11-08T19:13:47.714Z,14.80
2022-11-08T19:16:16.862Z,14.80
2022-11-08T19:18:44.666Z,14.80
2022-11-08T19:21:17.531Z,14.80
2022-11-08T19:23:45.938Z,14.80
2022-11-08T19:26:21.506Z,14.80
2022-11-08T19:28:49.479Z,14.70
2022-11-08T19:31:19.692Z,14.70
2022-11-08T19:33:47.640Z,14.70
2022-11-08T19:36:17.203Z,14.60
2022-11-08T19:38:44.310Z,14.50
2022-11-08T19:41:17.261Z,14.50
2022-11-08T19:43:44.864Z,14.50
2022-11-08T19:46:17.477Z,14.40
2022-11-08T19:48:46.935Z,14.40
2022-11-08T19:51:22.918Z,14.50
2022-11-08T19:53:50.330Z,14.50
2022-11-08T19:56:18.957Z,14.60
2022-11-08T19:58:46.967Z,14.60
2022-11-08T20:01:17.482Z,14.60
2022-11-08T20:03:45.421Z,14.50
2022-11-08T20:06:13.508Z,14.50
2022-11-08T20:08:40.990Z,14.50
2022-11-08T20:11:18.447Z,14.60
2022-11-08T20:13:45.733Z,14.60
2022-11-08T20:16:18.287Z,14.70
2022-11-08T20:18:45.498Z,14.70
2022-11-08T20:21:14.348Z,14.80
2022-11-08T20:23:42.711Z,15.00
2022-11-08T20:26:20.764Z,15.00
2022-11-08T20:28:55.926Z,15.10
2022-11-08T20:31:25.008Z,15.10
2022-11-08T20:33:53.742Z,15.10
2022-11-08T20:36:25.321Z,15.10
2022-11-08T20:38:59.086Z,15.00
2022-11-08T20:41:43.823Z,14.90
2022-11-08T20:44:10.984Z,14.90
2022-11-08T20:46:38.661Z,15.00
2022-11-08T20:49:05.878Z,14.90
2022-11-08T20:51:33.027Z,15.00
2022-11-08T20:54:00.819Z,15.00
2022-11-08T20:56:29.007Z,15.00
2022-11-08T20:58:55.967Z,15.00
2022-11-08T21:01:26.806Z,14.90
2022-11-08T21:03:54.025Z,14.90
2022-11-08T21:06:23.301Z,14.90
2022-11-08T21:09:00.844Z,14.90
2022-11-08T21:11:34.669Z,14.90
2022-11-08T21:14:03.147Z,14.90
2022-11-08T21:16:35.091Z,14.80
2022-11-08T21:19:05.832Z,14.90
2022-11-08T21:21:33.142Z,14.80
2022-11-08T21:24:00.378Z,14.80
2022-11-08T21:26:27.272Z,14.80
2022-11-08T21:28:54.112Z,14.70
2022-11-08T21:31:21.063Z,14.70
2022-11-08T21:33:47.947Z,14.70
2022-11-08T21:36:15.365Z,14.80
2022-11-08T21:38:42.377Z,14.80
2022-11-08T21:41:10.824Z,14.70
2022-11-08T21:43:42.972Z,14.70
2022-11-08T21:46:26.645Z,14.60
2022-11-08T21:48:58.912Z,14.60
2022-11-08T21:51:26.803Z,14.50
2022-11-08T21:53:55.876Z,14.50
2022-11-08T21:56:24.637Z,14.40
2022-11-08T21:58:51.735Z,14.40
2022-11-08T22:01:18.954Z,14.30
2022-11-08T22:03:46.805Z,14.30
2022-11-08T22:06:13.661Z,14.20
2022-11-08T22:08:40.478Z,14.10
2022-11-08T22:11:07.354Z,14.10
2022-11-08T22:13:34.307Z,14.10
2022-11-08T22:16:01.414Z,14.10
2022-11-08T22:18:50.706Z,14.00
2022-11-08T22:21:33.434Z,13.90
2022-11-08T22:24:00.259Z,13.90
2022-11-08T22:26:27.068Z,13.90
2022-11-08T22:28:53.908Z,14.00
2022-11-08T22:31:20.789Z,14.10
2022-11-08T22:33:47.772Z,14.10
2022-11-08T22:36:14.655Z,14.10
2022-11-08T22:38:41.538Z,14.10
2022-11-08T22:41:08.331Z,14.10
2022-11-08T22:43:35.893Z,14.00
2022-11-08T22:46:03.087Z,14.10
2022-11-08T22:48:29.969Z,14.00
2022-11-08T22:50:57.522Z,14.00
2022-11-08T22:53:24.365Z,13.90
2022-11-08T22:55:51.423Z,14.00
2022-11-08T22:58:18.312Z,13.90
2022-11-08T23:00:45.171Z,13.90
2022-11-08T23:03:12.178Z,13.90
2022-11-08T23:05:39.286Z,14.00
2022-11-08T23:08:06.349Z,14.00
2022-11-08T23:10:53.187Z,14.00
2022-11-08T23:13:38.594Z,14.00
2022-11-08T23:16:24.134Z,14.20
2022-11-08T23:19:09.582Z,14.20
2022-11-08T23:21:55.037Z,14.20
2022-11-08T23:24:21.886Z,14.20
2022-11-08T23:27:07.586Z,14.30
2022-11-08T23:29:53.116Z,14.30
2022-11-08T23:32:19.996Z,14.30
2022-11-08T23:34:46.783Z,14.30
2022-11-08T23:37:13.709Z,14.30
2022-11-08T23:40:00.703Z,14.20
2022-11-08T23:42:50.260Z,14.30
2022-11-08T23:45:17.975Z,14.30
2022-11-08T23:47:45.034Z,14.30
2022-11-08T23:50:12.328Z,14.30
2022-11-08T23:52:39.563Z,14.20
2022-11-08T23:55:07.203Z,14.20
2022-11-08T23:57:34.209Z,14.10
